Time;durP1;ratioP1;P1;durP2;ratioP2;P2;SDS_P1;SDS_P2;PMS_P1;PMS_P2;Temp;Humidity;BMP_temperature;BMP_pressure;BME280_temperature;BME280_humidity;BME280_pressure;Samples;Min_cycle;Max_cycle;Signal;HPM_P1;HPM_P2
2023/09/13 00:00:09;;;;;;;12.82;5.60;;;;;;;16.59;100.00;96553.63;5024922;28;20072;-68
2023/09/13 00:02:34;;;;;;;11.85;5.13;;;;;;;16.41;100.00;96551.03;5021676;28;20045;-68
2023/09/13 00:05:00;;;;;;;10.93;5.57;;;;;;;16.38;100.00;96549.06;5022447;28;20061;-70
2023/09/13 00:07:25;;;;;;;15.15;5.47;;;;;;;16.47;100.00;96546.59;5020500;28;20072;-68
2023/09/13 00:09:51;;;;;;;10.00;5.60;;;;;;;16.58;100.00;96552.03;5021420;28;20049;-68
2023/09/13 00:12:16;;;;;;;12.73;5.35;;;;;;;16.63;100.00;96546.84;5014459;28;20103;-68
2023/09/13 00:14:42;;;;;;;8.25;5.03;;;;;;;16.68;100.00;96542.84;5024216;28;20076;-68
2023/09/13 00:17:07;;;;;;;8.20;4.82;;;;;;;16.75;100.00;96539.25;5019028;28;20511;-68
2023/09/13 00:19:32;;;;;;;7.82;4.90;;;;;;;16.68;100.00;96534.56;5020466;28;20045;-68
2023/09/13 00:21:58;;;;;;;11.02;4.88;;;;;;;16.78;100.00;96543.94;5019213;28;20363;-69
2023/09/13 00:24:23;;;;;;;10.75;5.00;;;;;;;16.73;100.00;96542.41;5016907;28;20045;-68
2023/09/13 00:26:50;;;;;;;7.68;4.53;;;;;;;16.63;100.00;96546.84;5021727;28;20479;-68
2023/09/13 00:29:15;;;;;;;14.55;4.70;;;;;;;16.85;100.00;96545.88;5015292;28;20049;-68
2023/09/13 00:31:41;;;;;;;8.75;4.30;;;;;;;17.06;100.00;96553.94;5021428;28;20404;-68
2023/09/13 00:34:07;;;;;;;8.90;5.13;;;;;;;17.14;100.00;96555.44;5017940;28;20045;-68
2023/09/13 00:36:32;;;;;;;7.60;4.18;;;;;;;17.21;100.00;96554.53;5021855;28;20041;-68
2023/09/13 00:38:59;;;;;;;8.98;4.50;;;;;;;17.22;100.00;96549.81;5022471;28;20050;-68
2023/09/13 00:41:24;;;;;;;10.13;4.97;;;;;;;17.17;100.00;96557.34;5022175;28;20103;-68
2023/09/13 00:43:50;;;;;;;10.90;4.70;;;;;;;17.15;100.00;96558.97;5021355;28;20176;-68
2023/09/13 00:46:15;;;;;;;8.43;4.40;;;;;;;17.17;100.00;96562.88;5015777;28;20597;-68
2023/09/13 00:48:42;;;;;;;9.60;5.05;;;;;;;16.92;100.00;96562.38;5021145;28;20041;-68
2023/09/13 00:51:08;;;;;;;9.38;4.90;;;;;;;16.77;100.00;96547.91;5017318;28;20041;-68
2023/09/13 00:53:34;;;;;;;12.10;4.43;;;;;;;16.75;100.00;96553.84;5021353;28;20050;-68
2023/09/13 00:56:00;;;;;;;10.15;5.13;;;;;;;16.69;100.00;96547.22;5021309;28;20092;-68
2023/09/13 00:58:26;;;;;;;8.57;5.57;;;;;;;16.65;100.00;96549.19;5013166;28;20045;-69
2023/09/13 01:00:53;;;;;;;10.40;5.57;;;;;;;16.68;100.00;96547.63;5021400;28;20789;-68
2023/09/13 01:03:20;;;;;;;8.57;5.25;;;;;;;16.79;100.00;96549.06;5013774;28;20045;-68
2023/09/13 01:05:47;;;;;;;9.18;4.85;;;;;;;16.99;100.00;96546.50;5022154;28;20072;-69
2023/09/13 01:08:12;;;;;;;10.73;4.72;;;;;;;17.17;100.00;96545.50;5016324;28;20053;-68
2023/09/13 01:10:38;;;;;;;10.57;4.57;;;;;;;17.22;100.00;96547.03;5020358;28;20068;-68
2023/09/13 01:13:03;;;;;;;15.05;5.40;;;;;;;17.14;100.00;96549.91;5017761;28;20049;-68
2023/09/13 01:15:35;;;;;;;8.02;4.15;;;;;;;17.18;100.00;96549.84;5020836;28;20077;-69
2023/09/13 01:18:05;;;;;;;11.43;5.22;;;;;;;17.00;100.00;96550.06;5018455;28;20049;-69
2023/09/13 01:20:52;;;;;;;8.75;4.75;;;;;;;16.65;100.00;96535.38;5021558;28;20045;-68
2023/09/13 01:23:55;;;;;;;11.52;5.63;;;;;;;16.39;100.00;96534.06;5019116;28;20049;-69
2023/09/13 01:26:38;;;;;;;14.40;5.78;;;;;;;16.21;100.00;96521.19;4948819;28;20045;-69
2023/09/13 01:29:05;;;;;;;10.48;5.70;;;;;;;16.21;100.00;96528.69;5018154;28;20160;-69
2023/09/13 01:31:31;;;;;;;11.00;5.93;;;;;;;16.22;100.00;96520.00;5021471;28;20133;-68
2023/09/13 01:33:56;;;;;;;9.82;6.00;;;;;;;16.27;100.00;96517.97;5019552;28;20512;-68
2023/09/13 01:36:22;;;;;;;12.98;6.13;;;;;;;16.32;100.00;96517.53;5016172;28;20241;-69
2023/09/13 01:38:47;;;;;;;13.13;6.28;;;;;;;16.36;100.00;96515.53;5020590;28;20119;-69
2023/09/13 01:41:20;;;;;;;13.45;6.32;;;;;;;16.49;100.00;96521.31;5016991;28;20051;-68
2023/09/13 01:43:46;;;;;;;12.38;5.75;;;;;;;16.64;100.00;96531.06;5020941;28;20141;-67
2023/09/13 01:46:15;;;;;;;12.02;5.35;;;;;;;16.77;100.00;96531.31;5015845;28;20041;-67
2023/09/13 01:48:41;;;;;;;11.48;5.30;;;;;;;16.80;100.00;96524.97;5021082;28;20088;-69
2023/09/13 01:51:08;;;;;;;10.02;5.82;;;;;;;16.87;100.00;96524.13;5015408;28;20038;-68
2023/09/13 01:53:43;;;;;;;14.63;5.80;;;;;;;16.87;100.00;96529.66;5031975;28;20048;-69
2023/09/13 01:56:08;;;;;;;11.98;5.28;;;;;;;16.68;100.00;96514.44;5037072;28;20056;-67
2023/09/13 01:58:33;;;;;;;12.40;5.55;;;;;;;16.54;100.00;96529.19;5023846;28;20033;-67
2023/09/13 02:00:59;;;;;;;10.52;5.03;;;;;;;16.55;100.00;96519.69;5028654;28;20095;-67
2023/09/13 02:03:24;;;;;;;8.85;4.93;;;;;;;16.66;100.00;96525.13;5014837;28;20506;-67
2023/09/13 02:05:49;;;;;;;7.97;5.03;;;;;;;16.86;100.00;96519.78;5033372;28;20510;-67
2023/09/13 02:08:15;;;;;;;11.35;5.22;;;;;;;16.94;100.00;96522.06;5018371;28;20061;-67
2023/09/13 02:10:40;;;;;;;9.73;5.10;;;;;;;17.05;100.00;96515.59;5026097;28;20052;-67
2023/09/13 02:13:06;;;;;;;12.93;5.50;;;;;;;17.13;100.00;96526.19;5027332;28;20127;-67
2023/09/13 02:15:31;;;;;;;11.05;5.22;;;;;;;16.88;100.00;96534.00;5040787;28;20068;-69
2023/09/13 02:17:57;;;;;;;12.35;5.65;;;;;;;16.79;100.00;96531.69;5030056;28;20091;-69
2023/09/13 02:20:22;;;;;;;13.70;6.28;;;;;;;16.77;100.00;96537.63;5022000;28;20111;-69
2023/09/13 02:22:47;;;;;;;9.65;5.72;;;;;;;16.81;100.00;96535.59;5043531;28;20045;-68
2023/09/13 02:25:13;;;;;;;8.52;5.15;;;;;;;16.89;100.00;96547.41;5031454;28;20132;-68
2023/09/13 02:27:38;;;;;;;10.38;5.05;;;;;;;17.05;100.00;96551.56;5026559;28;20041;-68
2023/09/13 02:30:04;;;;;;;8.10;4.85;;;;;;;17.19;100.00;96549.41;5020004;28;20056;-69
2023/09/13 02:32:30;;;;;;;11.20;5.28;;;;;;;17.13;100.00;96559.38;5036153;28;20073;-69
2023/09/13 02:34:56;;;;;;;11.45;5.18;;;;;;;17.00;100.00;96545.31;5032733;28;20082;-69
2023/09/13 02:37:21;;;;;;;11.95;5.90;;;;;;;16.84;100.00;96547.09;5038414;28;20528;-68
2023/09/13 02:39:46;;;;;;;12.10;5.65;;;;;;;16.66;100.00;96541.72;5043671;28;20063;-68
2023/09/13 02:42:12;;;;;;;14.52;6.30;;;;;;;16.59;100.00;96545.31;5016874;28;20057;-68
2023/09/13 02:44:38;;;;;;;12.60;5.55;;;;;;;16.72;100.00;96554.66;5027002;28;20065;-68
2023/09/13 02:47:03;;;;;;;10.10;5.88;;;;;;;16.78;100.00;96550.25;5024788;28;20565;-69
2023/09/13 02:49:29;;;;;;;9.15;5.07;;;;;;;16.90;100.00;96548.97;5026181;28;20103;-68
2023/09/13 02:51:55;;;;;;;8.52;4.85;;;;;;;17.03;100.00;96545.66;5032315;28;20095;-68
2023/09/13 02:54:21;;;;;;;9.98;5.57;;;;;;;17.05;100.00;96552.38;5020002;28;20033;-69
2023/09/13 02:56:49;;;;;;;10.18;5.22;;;;;;;17.04;100.00;96558.31;5028252;28;20094;-69
2023/09/13 02:59:15;;;;;;;10.25;5.30;;;;;;;17.03;100.00;96565.03;5028143;28;20365;-68
2023/09/13 03:01:42;;;;;;;9.35;4.60;;;;;;;17.13;100.00;96566.91;5029872;28;20048;-68
2023/09/13 03:04:08;;;;;;;12.02;5.45;;;;;;;17.21;100.00;96568.38;5017916;28;20448;-69
2023/09/13 03:06:34;;;;;;;9.05;4.78;;;;;;;17.16;100.00;96564.09;5022675;28;20052;-68
2023/09/13 03:08:59;;;;;;;9.98;4.78;;;;;;;16.97;100.00;96559.94;5022576;28;20046;-69
2023/09/13 03:11:25;;;;;;;14.07;5.22;;;;;;;16.85;100.00;96560.47;5024116;28;20050;-69
2023/09/13 03:13:51;;;;;;;13.45;5.75;;;;;;;16.62;100.00;96558.34;5029492;28;20051;-67
2023/09/13 03:16:21;;;;;;;9.27;5.65;;;;;;;16.23;100.00;96548.41;5020194;28;20515;-67
2023/09/13 03:18:48;;;;;;;12.18;6.22;;;;;;;16.09;100.00;96554.06;5024200;28;20155;-67
2023/09/13 03:21:15;;;;;;;10.75;5.90;;;;;;;16.07;100.00;96540.63;5018317;28;20048;-68
2023/09/13 03:23:42;;;;;;;11.13;6.53;;;;;;;16.08;100.00;96533.13;5022763;28;20053;-67
2023/09/13 03:26:34;;;;;;;9.25;5.97;;;;;;;15.96;100.00;96535.19;5017973;28;20136;-67
2023/09/13 03:28:59;;;;;;;11.50;6.00;;;;;;;15.95;100.00;96525.31;5023656;28;20483;-67
2023/09/13 03:31:26;;;;;;;12.80;6.13;;;;;;;15.95;100.00;96517.03;5027347;28;20053;-67
2023/09/13 03:33:54;;;;;;;10.45;6.22;;;;;;;15.98;100.00;96519.00;5024190;28;20052;-68
2023/09/13 03:36:20;;;;;;;14.82;6.85;;;;;;;16.00;100.00;96516.59;5017160;28;20875;-67
2023/09/13 03:38:46;;;;;;;8.55;5.43;;;;;;;16.12;100.00;96520.88;5023104;28;20519;-66
2023/09/13 03:41:19;;;;;;;11.43;5.70;;;;;;;16.22;100.00;96524.72;5018141;28;20073;-67
2023/09/13 03:43:45;;;;;;;14.25;7.30;;;;;;;16.12;100.00;96514.56;5022280;28;20050;-67
2023/09/13 03:46:10;;;;;;;12.55;7.90;;;;;;;16.11;100.00;96519.28;5017700;28;20067;-67
2023/09/13 03:48:37;;;;;;;13.90;8.13;;;;;;;16.01;100.00;96511.88;5031224;28;20045;-67
2023/09/13 03:51:03;;;;;;;13.23;7.47;;;;;;;16.02;100.00;96510.69;5032571;28;20100;-67
2023/09/13 03:53:30;;;;;;;11.90;6.88;;;;;;;16.07;100.00;96517.75;5043399;28;20037;-68
2023/09/13 03:55:56;;;;;;;11.25;7.65;;;;;;;16.19;100.00;96522.78;5036418;28;20048;-68
2023/09/13 03:58:22;;;;;;;15.15;7.50;;;;;;;16.29;100.00;96526.66;5016841;28;20055;-67
2023/09/13 04:00:48;;;;;;;10.38;6.30;;;;;;;16.35;100.00;96522.22;5023273;28;20442;-67
2023/09/13 04:03:15;;;;;;;11.18;6.72;;;;;;;16.31;100.00;96521.50;5018475;28;20057;-67
2023/09/13 04:05:41;;;;;;;10.98;6.45;;;;;;;16.29;100.00;96529.41;5036545;28;20077;-66
2023/09/13 04:08:06;;;;;;;12.07;6.28;;;;;;;16.21;100.00;96537.75;5026600;28;20100;-66
2023/09/13 04:10:32;;;;;;;9.77;5.95;;;;;;;16.15;100.00;96538.59;5019849;28;20052;-67
2023/09/13 04:12:58;;;;;;;9.45;5.75;;;;;;;16.21;100.00;96528.69;5021390;28;20128;-67
2023/09/13 04:15:23;;;;;;;17.20;6.78;;;;;;;16.21;100.00;96534.22;5024905;28;20097;-66
2023/09/13 04:17:49;;;;;;;9.90;6.03;;;;;;;16.24;100.00;96542.47;5021502;28;20091;-66
2023/09/13 04:20:15;;;;;;;10.30;5.82;;;;;;;16.30;100.00;96548.34;5021912;28;20056;-67
2023/09/13 04:22:40;;;;;;;14.43;5.82;;;;;;;16.15;100.00;96555.97;5029065;28;20047;-67
2023/09/13 04:25:06;;;;;;;8.73;5.25;;;;;;;15.87;100.00;96543.16;5016821;28;20046;-67
2023/09/13 04:27:32;;;;;;;10.10;5.00;;;;;;;15.90;100.00;96541.56;5020806;28;20116;-66
2023/09/13 04:29:57;;;;;;;10.55;5.03;;;;;;;16.08;100.00;96546.94;5027908;28;20049;-67
2023/09/13 04:32:26;;;;;;;10.68;5.72;;;;;;;16.03;100.00;96546.19;5017497;28;20049;-66
2023/09/13 04:34:55;;;;;;;11.15;6.88;;;;;;;15.99;100.00;96542.69;5021609;28;20400;-66
2023/09/13 04:37:20;;;;;;;14.55;6.97;;;;;;;16.01;100.00;96543.06;5019347;28;20041;-66
2023/09/13 04:39:46;;;;;;;12.50;7.32;;;;;;;16.00;100.00;96552.53;5021916;28;20120;-66
2023/09/13 04:42:13;;;;;;;14.25;7.93;;;;;;;15.84;100.00;96550.25;5017261;28;20522;-66
2023/09/13 04:44:38;;;;;;;13.65;7.97;;;;;;;15.71;100.00;96556.66;5012143;28;20064;-66
2023/09/13 04:47:04;;;;;;;14.30;8.85;;;;;;;15.44;100.00;96552.44;5015907;28;20122;-66
2023/09/13 04:49:29;;;;;;;13.18;8.07;;;;;;;15.39;100.00;96552.88;5017579;28;20042;-66
2023/09/13 04:51:56;;;;;;;13.13;8.05;;;;;;;15.41;100.00;96555.22;5021200;28;20526;-66
2023/09/13 04:54:22;;;;;;;12.02;9.20;;;;;;;15.48;100.00;96561.50;5011720;28;20494;-67
2023/09/13 04:56:50;;;;;;;14.88;8.88;;;;;;;15.76;100.00;96567.31;5021174;28;20546;-67
2023/09/13 04:59:16;;;;;;;11.15;7.22;;;;;;;15.89;100.00;96573.13;5012515;28;20071;-67
2023/09/13 05:01:41;;;;;;;13.45;8.60;;;;;;;16.04;100.00;96569.88;5021364;28;20065;-66
2023/09/13 05:04:07;;;;;;;17.52;9.23;;;;;;;15.94;100.00;96565.19;5016501;28;20120;-66
2023/09/13 05:06:32;;;;;;;13.02;7.95;;;;;;;16.11;100.00;96566.25;5021808;28;20045;-67
2023/09/13 05:08:58;;;;;;;12.45;8.65;;;;;;;16.16;100.00;96571.34;5019458;28;20048;-67
2023/09/13 05:11:23;;;;;;;13.07;8.15;;;;;;;16.21;100.00;96570.91;5015985;28;20045;-67
2023/09/13 05:13:49;;;;;;;14.60;8.60;;;;;;;16.19;100.00;96578.84;5022280;28;20049;-67
2023/09/13 05:16:19;;;;;;;13.20;8.50;;;;;;;16.10;100.00;96577.69;5016259;28;20045;-66
2023/09/13 05:18:44;;;;;;;13.10;8.18;;;;;;;16.05;100.00;96581.69;5020048;28;20049;-65
2023/09/13 05:21:10;;;;;;;12.88;7.70;;;;;;;16.17;100.00;96583.97;5016417;28;20110;-66
2023/09/13 05:23:35;;;;;;;10.18;8.00;;;;;;;16.31;100.00;96580.31;5020668;28;20463;-66
2023/09/13 05:26:02;;;;;;;12.50;7.47;;;;;;;16.47;100.00;96581.75;5025589;28;20456;-66
2023/09/13 05:28:31;;;;;;;12.80;7.78;;;;;;;16.60;100.00;96591.13;5024784;28;20049;-66
2023/09/13 05:30:56;;;;;;;17.83;7.35;;;;;;;16.75;100.00;96591.78;5020248;28;20516;-65
2023/09/13 05:33:25;;;;;;;11.55;7.97;;;;;;;16.83;100.00;96596.06;5025388;28;20062;-66
2023/09/13 05:35:51;;;;;;;13.23;7.93;;;;;;;16.75;100.00;96595.31;5022272;28;20500;-67
2023/09/13 05:38:16;;;;;;;13.25;8.00;;;;;;;16.68;100.00;96600.94;5028491;28;20045;-68
2023/09/13 05:40:41;;;;;;;13.55;8.30;;;;;;;16.77;100.00;96606.75;5022147;28;20038;-67
2023/09/13 05:43:07;;;;;;;11.82;7.25;;;;;;;16.89;100.00;96607.47;5015192;28;20044;-67
2023/09/13 05:45:32;;;;;;;12.95;8.07;;;;;;;17.09;100.00;96616.75;5020647;28;20518;-66
2023/09/13 05:47:59;;;;;;;10.20;7.40;;;;;;;17.18;100.00;96617.06;5020933;28;20042;-66
2023/09/13 05:50:25;;;;;;;15.23;8.23;;;;;;;17.15;100.00;96606.03;5019063;28;20136;-66
2023/09/13 05:52:50;;;;;;;12.88;8.05;;;;;;;17.14;100.00;96612.72;5024889;28;20204;-66
2023/09/13 05:55:16;;;;;;;9.07;7.43;;;;;;;17.20;100.00;96613.88;5019304;28;20049;-66
2023/09/13 05:57:41;;;;;;;11.02;7.63;;;;;;;17.38;100.00;96608.91;5024538;28;20037;-66
2023/09/13 06:00:07;;;;;;;9.82;6.90;;;;;;;17.56;100.00;96603.16;5027369;28;20098;-67
2023/09/13 06:02:37;;;;;;;10.52;6.95;;;;;;;17.78;100.00;96617.50;5024863;28;20053;-66
2023/09/13 06:05:03;;;;;;;10.43;7.22;;;;;;;17.91;100.00;96617.75;5021913;28;20150;-67
2023/09/13 06:07:29;;;;;;;11.63;7.05;;;;;;;17.94;100.00;96610.59;5022466;28;20112;-67
2023/09/13 06:09:54;;;;;;;11.20;7.50;;;;;;;17.86;100.00;96614.66;5022654;28;20041;-68
2023/09/13 06:12:20;;;;;;;13.05;7.30;;;;;;;17.81;100.00;96617.84;5018009;28;20051;-67
2023/09/13 06:14:46;;;;;;;18.83;7.68;;;;;;;17.87;100.00;96628.09;5022092;28;20357;-67
2023/09/13 06:17:12;;;;;;;15.63;9.23;;;;;;;18.10;100.00;96629.38;5018752;28;20125;-68
2023/09/13 06:19:38;;;;;;;15.27;8.98;;;;;;;18.34;100.00;96628.19;5022867;28;20128;-68
2023/09/13 06:22:03;;;;;;;9.95;7.30;;;;;;;18.55;100.00;96631.84;5025789;28;20154;-68
2023/09/13 06:24:29;;;;;;;81.40;51.47;;;;;;;18.76;100.00;96635.47;5028628;28;20064;-68
2023/09/13 06:26:54;;;;;;;13.07;7.53;;;;;;;18.88;100.00;96634.91;5026197;28;20037;-68
2023/09/13 06:29:20;;;;;;;11.27;7.15;;;;;;;18.93;100.00;96637.19;5025444;28;20041;-67
2023/09/13 06:31:47;;;;;;;10.80;7.57;;;;;;;18.98;100.00;96639.47;5024130;28;20046;-68
2023/09/13 06:34:13;;;;;;;12.25;7.30;;;;;;;19.06;100.00;96640.91;5018349;28;20575;-67
2023/09/13 06:36:38;;;;;;;11.15;7.50;;;;;;;19.27;100.00;96653.63;5022871;28;20065;-68
2023/09/13 06:39:04;;;;;;;12.15;7.13;;;;;;;19.25;100.00;96642.16;5020299;28;20045;-67
2023/09/13 06:41:29;;;;;;;12.90;7.13;;;;;;;19.09;100.00;96628.97;5031185;28;20083;-67
2023/09/13 06:43:55;;;;;;;15.90;7.72;;;;;;;19.22;100.00;96628.34;5023729;28;20132;-67
2023/09/13 06:46:20;;;;;;;12.93;7.57;;;;;;;19.32;100.00;96618.22;5017900;28;20045;-67
2023/09/13 06:48:46;;;;;;;14.38;7.75;;;;;;;19.44;100.00;96631.47;5023076;28;20044;-67
2023/09/13 06:51:11;;;;;;;8.90;6.22;;;;;;;19.67;100.00;96627.84;5018010;28;20045;-66
2023/09/13 06:53:36;;;;;;;8.00;6.82;;;;;;;19.75;100.00;96620.94;5023246;28;20044;-67
2023/09/13 06:56:03;;;;;;;15.23;6.82;;;;;;;20.03;100.00;96625.09;5021992;28;20396;-67
2023/09/13 06:58:29;;;;;;;19.65;7.88;;;;;;;20.15;100.00;96629.22;5021707;28;20056;-67
2023/09/13 07:00:54;;;;;;;11.30;6.75;;;;;;;20.44;100.00;96628.56;5022802;28;20132;-68
2023/09/13 07:03:19;;;;;;;16.20;6.60;;;;;;;20.67;100.00;96630.41;5018217;28;20068;-67
2023/09/13 07:05:45;;;;;;;16.65;6.80;;;;;;;20.78;100.00;96627.38;5028709;28;20056;-67
2023/09/13 07:08:10;;;;;;;11.05;6.03;;;;;;;20.80;100.00;96639.63;5023084;28;20041;-67
2023/09/13 07:10:37;;;;;;;15.60;6.55;;;;;;;20.77;100.00;96640.47;5025006;28;20097;-67
2023/09/13 07:13:04;;;;;;;11.50;5.45;;;;;;;20.78;100.00;96636.50;5026947;28;20045;-67
2023/09/13 07:15:29;;;;;;;7.32;5.97;;;;;;;20.75;100.00;96637.34;5023656;28;20052;-67
2023/09/13 07:17:55;;;;;;;12.70;5.82;;;;;;;20.64;100.00;96642.41;5034168;28;20128;-66
2023/09/13 07:20:20;;;;;;;11.50;5.82;;;;;;;20.65;100.00;96637.63;5026156;28;20045;-66
2023/09/13 07:22:46;;;;;;;13.13;5.90;;;;;;;20.84;100.00;96644.31;5024211;28;20048;-66
2023/09/13 07:25:11;;;;;;;10.75;6.60;;;;;;;20.85;100.00;96645.88;5019829;28;20045;-66
2023/09/13 07:27:37;;;;;;;8.32;5.90;;;;;;;20.79;100.00;96651.19;5022842;28;20148;-67
2023/09/13 07:30:09;;;;;;;14.35;6.05;;;;;;;20.76;100.00;96654.81;5022176;28;20148;-67
2023/09/13 07:32:34;;;;;;;11.13;5.50;;;;;;;20.75;100.00;96659.63;5032625;28;20598;-67
2023/09/13 07:35:00;;;;;;;12.75;5.63;;;;;;;20.64;100.00;96670.22;5023333;28;20042;-66
2023/09/13 07:37:27;;;;;;;10.70;5.60;;;;;;;20.61;100.00;96666.31;5017306;28;20034;-66
2023/09/13 07:39:52;;;;;;;9.98;5.93;;;;;;;20.61;100.00;96669.09;5020545;28;20126;-67
2023/09/13 07:42:18;;;;;;;8.85;5.20;;;;;;;20.58;100.00;96678.28;5017401;28;20042;-66
2023/09/13 07:44:43;;;;;;;11.55;5.75;;;;;;;20.76;100.00;96685.44;5022086;28;20496;-67
2023/09/13 07:47:09;;;;;;;9.80;5.65;;;;;;;20.91;100.00;96680.31;5017868;28;20079;-68
2023/09/13 07:49:34;;;;;;;7.78;5.18;;;;;;;20.99;100.00;96682.50;5022197;28;20084;-67
2023/09/13 07:52:00;;;;;;;6.95;5.18;;;;;;;21.10;100.00;96684.22;5045315;28;20101;-67
2023/09/13 07:54:25;;;;;;;9.90;5.47;;;;;;;21.03;100.00;96685.19;5034368;28;20075;-66
2023/09/13 07:56:50;;;;;;;9.27;5.80;;;;;;;21.08;100.00;96692.22;5026452;28;20048;-67
2023/09/13 07:59:17;;;;;;;8.20;4.68;;;;;;;21.13;100.00;96695.25;5016943;28;20049;-68
2023/09/13 08:01:43;;;;;;;8.50;5.18;;;;;;;21.09;100.00;96700.13;5022374;28;20056;-67
2023/09/13 08:04:08;;;;;;;8.68;4.50;;;;;;;21.08;100.00;96695.78;5025368;28;20058;-66
2023/09/13 08:06:33;;;;;;;8.73;5.05;;;;;;;21.02;100.00;96693.97;5029997;28;20041;-68
2023/09/13 08:08:59;;;;;;;9.38;5.30;;;;;;;21.01;100.00;96698.75;5022018;28;20377;-66
2023/09/13 08:11:24;;;;;;;10.82;5.32;;;;;;;21.03;100.00;96692.75;5023844;28;20388;-66
2023/09/13 08:13:50;;;;;;;12.20;5.45;;;;;;;20.93;100.00;96702.94;5021643;28;20044;-66
2023/09/13 08:16:16;;;;;;;9.73;4.90;;;;;;;20.83;100.00;96703.97;5017137;28;20049;-66
2023/09/13 08:18:41;;;;;;;14.88;5.38;;;;;;;20.78;100.00;96703.28;5023148;28;20037;-66
2023/09/13 08:21:07;;;;;;;9.98;5.50;;;;;;;20.74;100.00;96708.16;5018358;28;20041;-66
2023/09/13 08:23:32;;;;;;;11.00;5.18;;;;;;;20.66;100.00;96709.53;5023376;28;20045;-67
2023/09/13 08:25:58;;;;;;;7.03;4.60;;;;;;;20.72;100.00;96709.78;5027713;28;20404;-68
2023/09/13 08:28:24;;;;;;;8.55;5.20;;;;;;;20.94;100.00;96710.06;5019304;28;20591;-68
2023/09/13 08:30:49;;;;;;;9.80;5.28;;;;;;;20.89;100.00;96713.38;5028719;28;20111;-68
2023/09/13 08:33:16;;;;;;;8.57;4.72;;;;;;;21.08;100.00;96723.63;5034859;28;20420;-68
2023/09/13 08:35:44;;;;;;;9.25;4.82;;;;;;;21.28;100.00;96723.50;5028665;28;20132;-68
2023/09/13 08:38:10;;;;;;;7.90;4.73;;;;;;;21.22;100.00;96725.28;5024602;28;20040;-67
2023/09/13 08:40:44;;;;;;;9.50;5.07;;;;;;;21.09;100.00;96730.78;5021292;28;20524;-67
2023/09/13 08:43:11;;;;;;;11.52;5.05;;;;;;;21.18;100.00;96730.16;5016064;28;20041;-67
2023/09/13 08:45:38;;;;;;;7.85;5.22;;;;;;;21.28;100.00;96734.66;5020840;28;20046;-67
2023/09/13 08:48:07;;;;;;;10.38;5.07;;;;;;;21.36;100.00;96741.63;5018651;28;20046;-67
2023/09/13 08:50:34;;;;;;;;;;;;;;;21.41;100.00;96739.53;5030008;28;20096;-67
2023/09/13 08:53:02;;;;;;;7.97;4.53;;;;;;;21.47;100.00;96735.81;5019638;28;19960;-67
2023/09/13 08:55:29;;;;;;;8.38;5.50;;;;;;;21.29;100.00;96735.47;5016215;28;20056;-67
2023/09/13 08:57:59;;;;;;;6.57;4.93;;;;;;;21.33;100.00;96744.50;5018136;28;20037;-67
2023/09/13 09:00:28;;;;;;;8.05;5.85;;;;;;;21.27;100.00;96749.81;5016265;28;20163;-67
2023/09/13 09:02:55;;;;;;;9.57;5.40;;;;;;;21.56;100.00;96752.69;5027342;28;20073;-67
2023/09/13 09:05:24;;;;;;;7.55;5.30;;;;;;;21.23;100.00;96765.84;5030842;28;20044;-67
2023/09/13 09:07:50;;;;;;;7.28;5.20;;;;;;;21.22;100.00;96772.63;5017667;28;20041;-67
2023/09/13 09:10:16;;;;;;;9.57;5.70;;;;;;;20.96;100.00;96769.66;5020259;28;20071;-67
2023/09/13 09:12:47;;;;;;;8.95;5.88;;;;;;;20.70;100.00;96768.66;5029790;28;20480;-67
2023/09/13 09:15:14;;;;;;;14.00;6.38;;;;;;;20.64;100.00;96766.84;5022198;28;20040;-68
2023/09/13 09:17:41;;;;;;;9.05;6.00;;;;;;;20.60;100.00;96753.00;5021539;28;20048;-67
2023/09/13 09:20:07;;;;;;;9.07;5.85;;;;;;;20.72;100.00;96763.44;5028641;28;20033;-67
2023/09/13 09:22:33;;;;;;;8.50;5.65;;;;;;;20.70;100.00;96765.09;5030872;28;20049;-67
2023/09/13 09:25:08;;;;;;;8.90;5.85;;;;;;;20.75;100.00;96768.16;5034261;28;20107;-67
2023/09/13 09:27:33;;;;;;;7.30;5.18;;;;;;;20.84;100.00;96766.78;5034390;28;20077;-67
2023/09/13 09:30:00;;;;;;;12.00;5.18;;;;;;;20.87;100.00;96765.91;5032714;28;20373;-67
2023/09/13 09:32:35;;;;;;;9.98;5.80;;;;;;;20.80;100.00;96770.44;5025990;28;20442;-67
2023/09/13 09:35:01;;;;;;;8.27;5.57;;;;;;;20.58;100.00;96763.75;5051101;28;20096;-68
2023/09/13 09:37:31;;;;;;;10.00;5.70;;;;;;;20.30;100.00;96765.94;5026258;28;20483;-66
2023/09/13 09:39:57;;;;;;;9.27;6.18;;;;;;;20.24;100.00;96762.09;5026095;28;20045;-67
2023/09/13 09:42:23;;;;;;;8.63;5.70;;;;;;;20.44;100.00;96768.41;5016146;28;20519;-67
2023/09/13 09:44:48;;;;;;;8.77;4.75;;;;;;;20.51;100.00;96767.50;5032202;28;20045;-67
2023/09/13 09:47:14;;;;;;;7.10;5.22;;;;;;;20.38;100.00;96767.38;5028035;28;20052;-68
2023/09/13 09:49:41;;;;;;;7.38;5.38;;;;;;;20.18;100.00;96766.59;5037911;28;20079;-68
2023/09/13 09:52:10;;;;;;;9.07;5.57;;;;;;;20.29;100.00;96760.81;5041147;28;20617;-67
2023/09/13 09:54:37;;;;;;;9.17;5.17;;;;;;;20.34;100.00;96772.19;5032705;28;20561;-67
2023/09/13 09:57:04;;;;;;;10.73;5.70;;;;;;;20.30;100.00;96777.06;5024198;28;20049;-67
2023/09/13 09:59:30;;;;;;;9.90;5.72;;;;;;;20.27;100.00;96772.34;5019593;28;20053;-67
2023/09/13 10:01:57;;;;;;;9.50;5.03;;;;;;;20.49;100.00;96769.13;5028938;28;20125;-65
2023/09/13 10:04:22;;;;;;;10.25;5.85;;;;;;;20.67;100.00;96777.91;5015568;28;20287;-66
2023/09/13 10:07:05;;;;;;;12.75;4.90;;;;;;;20.90;100.00;96774.16;5019315;28;20661;-66
2023/09/13 10:09:38;;;;;;;6.63;4.45;;;;;;;21.07;100.00;96782.53;5020246;28;20041;-66
2023/09/13 10:12:04;;;;;;;8.77;5.45;;;;;;;20.94;100.00;96774.09;5031911;28;20052;-67
2023/09/13 10:14:30;;;;;;;6.57;4.05;;;;;;;21.14;100.00;96776.78;5030783;28;20052;-66
2023/09/13 10:16:56;;;;;;;7.88;4.65;;;;;;;21.56;100.00;96777.75;5021001;28;20492;-66
2023/09/13 10:19:32;;;;;;;8.48;4.80;;;;;;;21.39;100.00;96768.63;5015636;28;20133;-66
2023/09/13 10:21:58;;;;;;;6.35;4.40;;;;;;;21.24;100.00;96781.31;5013004;28;20034;-66
2023/09/13 10:24:27;;;;;;;7.90;4.30;;;;;;;21.15;100.00;96773.56;5015640;28;20045;-66
2023/09/13 10:26:52;;;;;;;5.50;4.20;;;;;;;21.42;100.00;96783.66;5024788;28;20045;-67
2023/09/13 10:29:30;;;;;;;7.38;4.80;;;;;;;21.63;100.00;96776.78;5019716;28;20053;-66
2023/09/13 10:32:00;;;;;;;7.93;4.25;;;;;;;21.67;100.00;96771.91;5014106;28;20069;-66
2023/09/13 10:34:32;;;;;;;7.43;4.10;;;;;;;21.61;100.00;96768.09;5032893;28;20391;-66
2023/09/13 10:37:18;;;;;;;9.68;4.78;;;;;;;21.60;100.00;96768.53;5034085;28;20396;-66
2023/09/13 10:39:49;;;;;;;7.15;3.95;;;;;;;21.83;100.00;96767.53;5031606;28;20050;-66
2023/09/13 10:42:15;;;;;;;8.48;4.68;;;;;;;21.71;100.00;96772.56;5018813;28;20048;-68
2023/09/13 10:44:41;;;;;;;10.20;4.57;;;;;;;21.90;100.00;96772.91;5040494;28;20057;-67
2023/09/13 10:47:08;;;;;;;6.95;4.85;;;;;;;21.90;100.00;96773.69;5024961;28;20480;-68
2023/09/13 10:49:37;;;;;;;7.95;4.75;;;;;;;21.78;100.00;96766.03;5023928;28;20042;-67
2023/09/13 10:52:03;;;;;;;6.32;4.28;;;;;;;21.88;100.00;96764.97;5021310;28;20045;-68
2023/09/13 10:54:31;;;;;;;6.95;4.28;;;;;;;21.76;100.00;96760.13;5020453;28;20049;-68
2023/09/13 10:56:56;;;;;;;10.30;4.88;;;;;;;21.55;100.00;96759.47;5023692;28;20124;-67
2023/09/13 10:59:24;;;;;;;7.05;4.80;;;;;;;21.53;100.00;96767.47;5026613;28;20067;-66
2023/09/13 11:01:51;;;;;;;9.65;5.40;;;;;;;21.54;100.00;96757.91;5031801;28;20037;-66
2023/09/13 11:04:21;;;;;;;7.80;4.45;;;;;;;21.59;100.00;96753.81;5033657;28;20045;-66
2023/09/13 11:06:50;;;;;;;7.78;4.80;;;;;;;21.74;100.00;96760.56;5023102;28;20069;-66
2023/09/13 11:09:18;;;;;;;6.53;4.85;;;;;;;21.92;100.00;96762.84;5026552;28;20076;-66
2023/09/13 11:11:48;;;;;;;14.15;5.18;;;;;;;22.03;100.00;96765.34;5026406;28;20109;-66
2023/09/13 11:14:20;;;;;;;8.93;4.93;;;;;;;22.22;100.00;96760.03;5023413;28;20041;-66
2023/09/13 11:16:48;;;;;;;8.70;4.82;;;;;;;22.52;100.00;96769.94;5032210;28;20053;-66
2023/09/13 11:19:15;;;;;;;8.50;5.10;;;;;;;22.55;100.00;96765.50;5024976;28;20080;-66